createdAt,value
2022-11-27T00:01:19.872Z,6.65
2022-11-27T00:04:21.959Z,6.22
2022-11-27T00:07:24.010Z,5.53
2022-11-27T00:10:26.003Z,6.53
2022-11-27T00:13:27.952Z,5.22
2022-11-27T00:16:32.512Z,5.25
2022-11-27T00:19:34.415Z,3.72
2022-11-27T00:22:37.695Z,7.20
2022-11-27T00:25:39.718Z,10.00
2022-11-27T00:28:41.629Z,5.35
2022-11-27T00:31:43.581Z,6.70
2022-11-27T00:34:46.156Z,4.72
2022-11-27T00:37:48.147Z,5.78
2022-11-27T00:40:50.248Z,4.55
2022-11-27T00:43:52.629Z,4.88
2022-11-27T00:46:54.462Z,6.53
2022-11-27T00:49:56.542Z,5.10
2022-11-27T00:52:59.748Z,5.43
2022-11-27T00:56:02.210Z,6.88
2022-11-27T00:59:06.385Z,9.82
2022-11-27T01:02:08.194Z,6.68
2022-11-27T01:05:10.343Z,4.28
2022-11-27T01:08:12.147Z,3.75
2022-11-27T01:11:16.353Z,3.92
2022-11-27T01:14:19.061Z,9.50
2022-11-27T01:17:21.052Z,4.03
2022-11-27T01:20:23.331Z,2.53
2022-11-27T01:23:25.418Z,5.97
2022-11-27T01:26:27.689Z,3.22
2022-11-27T01:29:29.481Z,6.97
2022-11-27T01:32:31.257Z,6.40
2022-11-27T01:35:33.859Z,3.50
2022-11-27T01:38:36.333Z,5.63
2022-11-27T01:41:41.367Z,4.85
2022-11-27T01:44:49.383Z,6.40
2022-11-27T01:47:57.097Z,4.65
2022-11-27T01:50:59.061Z,4.13
2022-11-27T01:54:01.030Z,5.07
2022-11-27T01:57:07.679Z,4.30
2022-11-27T02:00:14.187Z,2.17
2022-11-27T02:03:16.510Z,3.07
2022-11-27T02:06:18.334Z,4.05
2022-11-27T02:09:20.239Z,6.57
2022-11-27T02:12:42.222Z,5.00
2022-11-27T02:15:50.316Z,4.13
2022-11-27T02:19:15.469Z,4.28
2022-11-27T02:22:23.913Z,6.00
2022-11-27T02:26:03.190Z,12.77
2022-11-27T02:29:10.119Z,5.25
2022-11-27T02:32:19.069Z,3.55
2022-11-27T02:35:33.838Z,5.05
2022-11-27T02:38:46.551Z,7.38
2022-11-27T02:41:52.969Z,5.13
2022-11-27T02:45:01.992Z,3.63
2022-11-27T02:48:05.093Z,4.55
2022-11-27T02:51:10.086Z,9.52
2022-11-27T02:54:15.942Z,4.13
2022-11-27T02:57:20.261Z,8.00
2022-11-27T03:00:22.451Z,4.80
2022-11-27T03:03:34.672Z,5.78
2022-11-27T03:06:56.315Z,7.07
2022-11-27T03:10:02.374Z,5.85
2022-11-27T03:13:04.162Z,5.40
2022-11-27T03:16:13.350Z,3.75
2022-11-27T03:19:18.480Z,9.15
2022-11-27T03:22:20.485Z,7.75
2022-11-27T03:25:23.663Z,6.38
2022-11-27T03:28:25.417Z,4.80
2022-11-27T03:31:27.477Z,6.40
2022-11-27T03:34:29.421Z,6.40
2022-11-27T03:37:33.325Z,4.78
2022-11-27T03:41:07.839Z,5.13
2022-11-27T03:44:38.142Z,3.83
2022-11-27T03:47:55.022Z,5.78
2022-11-27T03:51:26.426Z,4.07
2022-11-27T03:54:50.137Z,3.20
2022-11-27T03:58:00.684Z,5.13
2022-11-27T04:01:04.427Z,3.92
2022-11-27T04:04:06.840Z,6.93
2022-11-27T04:07:15.175Z,3.58
2022-11-27T04:10:17.145Z,4.00
2022-11-27T04:13:19.006Z,6.57
2022-11-27T04:16:21.197Z,5.10
2022-11-27T04:19:23.004Z,4.93
2022-11-27T04:22:24.903Z,4.82
2022-11-27T04:25:26.932Z,5.13
2022-11-27T04:28:28.662Z,4.93
2022-11-27T04:31:30.415Z,5.13
2022-11-27T04:34:32.801Z,3.25
2022-11-27T04:37:34.637Z,6.72
2022-11-27T04:40:36.624Z,6.68
2022-11-27T04:43:39.561Z,4.65
2022-11-27T04:46:41.476Z,6.18
2022-11-27T04:49:43.597Z,7.93
2022-11-27T04:52:45.278Z,9.60
2022-11-27T04:55:47.348Z,4.50
2022-11-27T04:58:49.235Z,4.78
2022-11-27T05:01:51.009Z,3.50
2022-11-27T05:04:53.516Z,2.70
2022-11-27T05:07:55.865Z,1.90
2022-11-27T05:11:05.510Z,2.97
2022-11-27T05:14:18.839Z,3.38
2022-11-27T05:17:21.498Z,3.33
2022-11-27T05:20:23.982Z,1.73
2022-11-27T05:23:28.298Z,3.08
2022-11-27T05:26:32.849Z,2.88
2022-11-27T05:29:34.733Z,4.10
2022-11-27T05:32:39.448Z,4.07
2022-11-27T05:35:49.383Z,3.03
2022-11-27T05:38:54.407Z,3.60
2022-11-27T05:41:57.379Z,3.83
2022-11-27T05:45:00.025Z,3.30
2022-11-27T05:48:02.958Z,3.35
2022-11-27T05:51:05.704Z,3.40
2022-11-27T05:54:07.995Z,5.95
2022-11-27T05:57:12.566Z,3.30
2022-11-27T06:00:15.000Z,7.45
2022-11-27T06:03:20.066Z,19.40
2022-11-27T06:06:22.302Z,5.20
2022-11-27T06:09:24.166Z,4.70
2022-11-27T06:12:25.993Z,4.57
2022-11-27T06:15:28.331Z,4.55
2022-11-27T06:18:30.365Z,3.53
2022-11-27T06:21:32.269Z,3.63
2022-11-27T06:24:35.673Z,3.05
2022-11-27T06:27:37.740Z,3.88
2022-11-27T06:30:39.873Z,10.45
2022-11-27T06:33:42.531Z,21.80
2022-11-27T06:36:44.452Z,4.15
2022-11-27T06:39:49.200Z,3.95
2022-11-27T06:42:51.748Z,2.22
2022-11-27T06:45:59.108Z,4.63
2022-11-27T06:49:01.178Z,6.60
2022-11-27T06:52:03.500Z,4.82
2022-11-27T06:55:05.608Z,4.25
2022-11-27T06:58:07.482Z,7.13
2022-11-27T07:01:13.329Z,5.68
2022-11-27T07:04:16.215Z,8.40
2022-11-27T07:07:18.168Z,7.07
2022-11-27T07:10:20.151Z,8.73
2022-11-27T07:13:21.833Z,6.80
2022-11-27T07:16:24.401Z,6.00
2022-11-27T07:19:26.745Z,5.95
2022-11-27T07:22:28.869Z,5.95
2022-11-27T07:25:30.725Z,5.47
2022-11-27T07:28:32.578Z,5.50
2022-11-27T07:31:34.600Z,4.78
2022-11-27T07:34:36.548Z,7.35
2022-11-27T07:37:39.619Z,7.45
2022-11-27T07:40:41.471Z,5.57
2022-11-27T07:43:44.371Z,6.50
2022-11-27T07:46:46.237Z,5.70
2022-11-27T07:49:48.136Z,3.97
2022-11-27T07:52:50.038Z,5.28
2022-11-27T07:55:52.530Z,4.90
2022-11-27T07:58:54.869Z,5.35
2022-11-27T08:01:57.005Z,6.72
2022-11-27T08:04:58.853Z,6.28
2022-11-27T08:08:01.691Z,6.18
2022-11-27T08:11:03.591Z,3.58
2022-11-27T08:14:07.025Z,4.82
2022-11-27T08:17:12.057Z,5.28
2022-11-27T08:20:13.810Z,6.53
2022-11-27T08:23:15.740Z,6.40
2022-11-27T08:26:17.566Z,5.13
2022-11-27T08:29:19.363Z,7.78
2022-11-27T08:32:21.298Z,7.68
2022-11-27T08:35:23.336Z,7.72
2022-11-27T08:38:25.843Z,9.57
2022-11-27T08:41:30.666Z,7.65
2022-11-27T08:44:32.786Z,10.85
2022-11-27T08:47:34.856Z,9.73
2022-11-27T08:50:38.175Z,6.50
2022-11-27T08:53:40.186Z,9.27
2022-11-27T08:56:44.568Z,6.65
2022-11-27T08:59:46.553Z,6.68
2022-11-27T09:02:48.409Z,6.38
2022-11-27T09:05:50.297Z,7.45
2022-11-27T09:08:52.286Z,5.45
2022-11-27T09:11:55.032Z,7.45
2022-11-27T09:14:57.345Z,5.70
2022-11-27T09:17:59.901Z,8.50
2022-11-27T09:21:07.026Z,5.18
2022-11-27T09:24:09.509Z,4.10
2022-11-27T09:27:11.417Z,5.35
2022-11-27T09:30:13.676Z,5.10
2022-11-27T09:33:15.612Z,5.50
2022-11-27T09:36:22.922Z,3.95
2022-11-27T09:39:27.053Z,5.35
2022-11-27T09:42:39.988Z,7.05
2022-11-27T09:45:49.189Z,6.32
2022-11-27T09:48:51.455Z,5.20
2022-11-27T09:51:53.552Z,5.75
2022-11-27T09:55:18.806Z,5.10
2022-11-27T09:58:36.371Z,8.65
2022-11-27T10:05:12.968Z,7.70
2022-11-27T10:08:24.860Z,5.13
2022-11-27T10:11:37.803Z,6.70
2022-11-27T10:15:00.307Z,4.68
2022-11-27T10:18:13.887Z,6.70
2022-11-27T10:21:26.293Z,5.63
2022-11-27T10:24:40.005Z,6.95
2022-11-27T10:27:57.641Z,4.20
2022-11-27T10:31:04.436Z,5.43
2022-11-27T10:34:21.196Z,5.00
2022-11-27T10:37:42.733Z,3.23
2022-11-27T10:40:53.778Z,5.05
2022-11-27T10:43:59.158Z,6.47
2022-11-27T10:47:04.406Z,6.05
2022-11-27T10:50:14.822Z,5.32
2022-11-27T10:53:19.716Z,3.67
2022-11-27T10:56:56.957Z,3.63
2022-11-27T11:00:11.106Z,5.95
2022-11-27T11:03:19.403Z,3.88
2022-11-27T11:06:26.699Z,2.78
2022-11-27T11:09:34.963Z,3.47
2022-11-27T11:12:37.264Z,2.78
2022-11-27T11:15:57.691Z,2.78
2022-11-27T11:19:01.674Z,2.40
2022-11-27T11:22:16.730Z,1.77
2022-11-27T11:25:20.343Z,4.07
2022-11-27T11:28:22.925Z,2.70
2022-11-27T11:31:39.298Z,2.10
2022-11-27T11:34:47.682Z,2.75
2022-11-27T11:37:49.698Z,1.95
2022-11-27T11:41:07.096Z,2.42
2022-11-27T11:44:23.217Z,4.05
2022-11-27T11:47:26.837Z,1.70
2022-11-27T11:50:41.272Z,2.42
2022-11-27T11:53:47.190Z,1.40
2022-11-27T11:56:52.860Z,3.53
2022-11-27T12:00:07.136Z,1.63
2022-11-27T12:03:34.734Z,2.28
2022-11-27T12:07:12.316Z,3.42
2022-11-27T12:10:39.151Z,2.17
2022-11-27T12:13:48.739Z,1.33
2022-11-27T12:17:17.697Z,1.50
2022-11-27T12:20:50.644Z,3.88
2022-11-27T12:24:12.860Z,1.48
2022-11-27T12:27:20.687Z,3.95
2022-11-27T12:30:26.745Z,3.30
2022-11-27T12:33:40.887Z,1.92
2022-11-27T12:37:18.932Z,3.85
2022-11-27T12:40:42.684Z,3.22
2022-11-27T12:43:48.649Z,2.10
2022-11-27T12:46:59.652Z,2.45
2022-11-27T12:50:14.596Z,1.50
2022-11-27T12:53:52.049Z,1.92
2022-11-27T12:56:57.901Z,2.25
2022-11-27T13:00:06.422Z,2.55
2022-11-27T13:03:22.287Z,3.38
2022-11-27T13:06:24.906Z,2.97
2022-11-27T13:09:37.011Z,1.85
2022-11-27T13:12:50.865Z,2.78
2022-11-27T13:15:56.914Z,1.92
2022-11-27T13:19:16.185Z,2.45
2022-11-27T13:22:29.951Z,1.70
2022-11-27T13:25:34.936Z,2.00
2022-11-27T13:28:53.284Z,2.17
2022-11-27T13:31:57.593Z,4.50
2022-11-27T13:35:03.328Z,2.80
2022-11-27T13:38:25.418Z,3.15
2022-11-27T13:41:34.274Z,1.92
2022-11-27T13:44:40.286Z,2.72
2022-11-27T13:47:44.004Z,3.83
2022-11-27T13:50:46.243Z,4.65
2022-11-27T13:53:48.159Z,3.42
2022-11-27T13:56:50.023Z,2.30
2022-11-27T14:00:05.884Z,3.88
2022-11-27T14:03:24.572Z,3.03
2022-11-27T14:06:29.251Z,3.13
2022-11-27T14:09:47.139Z,3.53
2022-11-27T14:12:57.318Z,2.55
2022-11-27T14:16:02.363Z,3.85
2022-11-27T14:19:06.894Z,3.60
2022-11-27T14:23:07.145Z,2.92
2022-11-27T14:26:25.136Z,7.28
2022-11-27T14:29:31.020Z,7.45
2022-11-27T14:32:35.696Z,19.00
2022-11-27T14:35:37.722Z,4.10
2022-11-27T14:38:40.242Z,3.65
2022-11-27T14:41:42.079Z,5.40
2022-11-27T14:44:43.969Z,3.28
2022-11-27T14:47:53.064Z,8.85
2022-11-27T14:50:56.208Z,4.25
2022-11-27T14:54:03.046Z,4.22
2022-11-27T14:57:06.167Z,4.30
2022-11-27T15:00:17.676Z,2.53
2022-11-27T15:03:20.848Z,2.63
2022-11-27T15:06:23.286Z,4.03
2022-11-27T15:09:32.301Z,3.85
2022-11-27T15:12:38.460Z,2.97
2022-11-27T15:15:44.079Z,3.03
2022-11-27T15:18:58.194Z,9.35
2022-11-27T15:22:00.399Z,2.15
2022-11-27T15:25:05.653Z,2.88
2022-11-27T15:28:50.142Z,3.05
2022-11-27T15:31:53.027Z,2.25
2022-11-27T15:34:55.623Z,2.03
2022-11-27T15:38:05.678Z,4.22
2022-11-27T15:41:28.864Z,4.70
2022-11-27T15:44:32.931Z,4.63
2022-11-27T15:47:37.139Z,1.40
2022-11-27T15:50:39.432Z,2.22
2022-11-27T15:53:41.695Z,3.15
2022-11-27T15:56:43.843Z,4.78
2022-11-27T15:59:46.085Z,18.60
2022-11-27T16:02:48.611Z,19.38
2022-11-27T16:05:51.259Z,18.38
2022-11-27T16:09:01.229Z,14.48
2022-11-27T16:12:03.734Z,18.08
2022-11-27T16:15:09.968Z,11.45
2022-11-27T16:18:12.184Z,15.53
2022-11-27T16:21:16.233Z,13.43
2022-11-27T16:24:18.822Z,19.05
2022-11-27T16:27:21.744Z,19.52
2022-11-27T16:30:26.472Z,14.15
2022-11-27T16:33:30.614Z,16.27
2022-11-27T16:36:33.465Z,17.38
2022-11-27T16:39:36.039Z,15.23
2022-11-27T16:42:38.803Z,14.35
2022-11-27T16:45:41.605Z,17.83
2022-11-27T16:48:45.434Z,16.38
2022-11-27T16:51:49.182Z,13.27
2022-11-27T16:54:55.512Z,17.42
2022-11-27T16:57:59.113Z,13.70
2022-11-27T17:01:13.460Z,15.38
2022-11-27T17:04:19.666Z,17.58
2022-11-27T17:07:22.603Z,13.93
2022-11-27T17:10:25.225Z,14.20
2022-11-27T17:13:27.654Z,13.77
2022-11-27T17:16:29.960Z,12.82
2022-11-27T17:19:34.594Z,12.38
2022-11-27T17:22:37.394Z,11.20
2022-11-27T17:25:42.025Z,14.48
2022-11-27T17:28:46.653Z,14.02
2022-11-27T17:31:50.963Z,15.80
2022-11-27T17:34:53.523Z,11.63
2022-11-27T17:37:56.574Z,9.82
2022-11-27T17:41:09.145Z,12.10
2022-11-27T17:44:11.394Z,14.32
2022-11-27T17:47:13.530Z,12.65
2022-11-27T17:50:15.589Z,11.30
2022-11-27T17:53:19.620Z,15.13
2022-11-27T17:56:22.285Z,13.25
2022-11-27T17:59:24.786Z,15.80
2022-11-27T18:02:27.248Z,12.55
2022-11-27T18:05:29.640Z,10.85
2022-11-27T18:08:33.054Z,11.65
2022-11-27T18:11:35.469Z,12.45
2022-11-27T18:14:37.877Z,16.30
2022-11-27T18:17:40.791Z,12.20
2022-11-27T18:20:44.355Z,14.98
2022-11-27T18:27:15.654Z,15.48
2022-11-27T18:30:18.059Z,18.08
2022-11-27T18:33:20.426Z,18.60
2022-11-27T18:36:23.289Z,13.30
2022-11-27T18:39:26.864Z,16.92
2022-11-27T18:42:30.925Z,16.15
2022-11-27T18:45:33.316Z,18.17
2022-11-27T18:48:39.566Z,15.20
2022-11-27T18:51:41.912Z,12.73
2022-11-27T18:54:44.557Z,13.73
2022-11-27T18:57:47.981Z,12.40
2022-11-27T19:00:51.738Z,15.32
2022-11-27T19:03:55.032Z,18.60
2022-11-27T19:06:58.453Z,22.00
2022-11-27T19:10:06.178Z,18.52
2022-11-27T19:16:22.964Z,13.77
2022-11-27T19:22:50.883Z,13.27
2022-11-27T19:25:55.983Z,16.92
2022-11-27T19:29:08.494Z,19.95
2022-11-27T19:32:23.293Z,18.42
2022-11-27T19:35:27.515Z,17.20
2022-11-27T19:38:34.395Z,17.13
2022-11-27T19:41:41.669Z,14.85
2022-11-27T19:44:46.265Z,19.73
2022-11-27T19:47:50.244Z,20.60
2022-11-27T19:50:53.403Z,25.30
2022-11-27T19:53:56.091Z,16.08
2022-11-27T19:56:59.056Z,19.73
2022-11-27T20:00:01.277Z,17.55
2022-11-27T20:03:04.739Z,12.32
2022-11-27T20:06:10.507Z,14.18
2022-11-27T20:09:14.238Z,12.38
2022-11-27T20:12:16.546Z,16.98
2022-11-27T20:15:19.346Z,16.13
2022-11-27T20:18:22.963Z,18.30
2022-11-27T20:21:26.025Z,20.15
2022-11-27T20:24:28.586Z,19.65
2022-11-27T20:27:32.330Z,12.60
2022-11-27T20:30:38.374Z,19.77
2022-11-27T20:33:41.257Z,18.70
2022-11-27T20:36:44.251Z,16.30
2022-11-27T20:39:49.324Z,15.63
2022-11-27T20:42:52.565Z,21.02
2022-11-27T20:45:55.200Z,16.45
2022-11-27T20:49:05.704Z,20.65
2022-11-27T20:52:11.830Z,14.30
2022-11-27T20:55:14.254Z,16.85
2022-11-27T20:58:17.753Z,16.00
2022-11-27T21:01:22.741Z,18.02
2022-11-27T21:04:26.706Z,18.42
2022-11-27T21:07:29.592Z,12.80
2022-11-27T21:10:32.386Z,18.38
2022-11-27T21:13:34.489Z,14.43
2022-11-27T21:16:42.353Z,20.08
2022-11-27T21:19:45.207Z,35.28
2022-11-27T21:22:48.008Z,26.48
2022-11-27T21:25:50.551Z,27.42
2022-11-27T21:28:53.054Z,32.03
2022-11-27T21:31:55.769Z,27.15
2022-11-27T21:34:59.388Z,23.67
2022-11-27T21:38:02.299Z,22.83
2022-11-27T21:41:05.180Z,23.63
2022-11-27T21:44:07.171Z,19.08
2022-11-27T21:47:12.353Z,20.08
2022-11-27T21:50:15.367Z,21.55
2022-11-27T21:53:17.828Z,26.65
2022-11-27T21:56:22.759Z,24.63
2022-11-27T21:59:24.852Z,20.08
2022-11-27T22:02:27.432Z,23.23
2022-11-27T22:05:30.297Z,18.67
2022-11-27T22:11:52.593Z,17.48
2022-11-27T22:14:55.332Z,17.42
2022-11-27T22:17:57.731Z,19.77
2022-11-27T22:21:07.034Z,14.98
2022-11-27T22:24:19.472Z,12.52
2022-11-27T22:27:26.367Z,12.48
2022-11-27T22:30:31.201Z,21.60
2022-11-27T22:33:35.859Z,23.38
2022-11-27T22:36:38.070Z,19.45
2022-11-27T22:39:39.944Z,18.42
2022-11-27T22:42:42.060Z,22.80
2022-11-27T22:45:48.113Z,17.00
2022-11-27T22:48:58.472Z,28.38
2022-11-27T22:52:00.366Z,18.35
2022-11-27T22:55:03.890Z,23.10
2022-11-27T22:58:05.637Z,24.30
2022-11-27T23:01:19.027Z,25.05
2022-11-27T23:04:23.250Z,25.10
2022-11-27T23:07:25.597Z,18.70
2022-11-27T23:10:27.721Z,20.10
2022-11-27T23:13:46.356Z,30.20
2022-11-27T23:16:51.259Z,31.75
2022-11-27T23:19:53.161Z,32.95
2022-11-27T23:22:55.112Z,28.73
2022-11-27T23:26:02.816Z,24.33
2022-11-27T23:29:05.341Z,35.55
2022-11-27T23:32:07.436Z,27.45
2022-11-27T23:35:10.110Z,29.70
2022-11-27T23:38:12.271Z,39.20
2022-11-27T23:41:25.413Z,28.88
2022-11-27T23:44:27.306Z,26.00
2022-11-27T23:47:30.478Z,22.33
2022-11-27T23:50:32.354Z,22.25
2022-11-27T23:53:34.303Z,19.48
2022-11-27T23:56:37.379Z,16.58
2022-11-27T23:59:46.006Z,12.73
